Time,TemperatureF,DewpointF,PressureIn,WindDirection,WindDirectionDegrees,WindSpeedMPH,WindSpeedGustMPH,Humidity,HourlyPrecipIn,Conditions,Clouds,dailyrainin,SoftwareType,DateUTC
2013-07-13 00:01:00,68.0,62.0,-100.00,NNE,30,1.0,4.0,83,-99.99,,,-99.99,,2013-07-13 04:01:00,
2013-07-13 00:43:00,67.0,62.0,-100.00,NE,35,2.0,4.0,81,-99.99,,,-99.99,,2013-07-13 04:43:00,
2013-07-13 01:11:00,67.0,62.0,-100.00,North,0,2.0,4.0,83,-99.99,,,-99.99,,2013-07-13 05:11:00,
2013-07-13 01:22:00,67.0,62.0,-100.00,North,350,5.0,6.0,84,-99.99,,,-99.99,,2013-07-13 05:22:00,
2013-07-13 01:32:00,67.0,62.0,-100.00,North,0,6.0,7.0,84,-99.99,,,-99.99,,2013-07-13 05:32:00,
2013-07-13 01:42:00,67.0,62.0,-100.00,NE,40,2.0,4.0,83,-99.99,,,-99.99,,2013-07-13 05:42:00,
2013-07-13 01:52:00,67.0,62.0,-100.00,NE,40,2.0,4.0,83,-99.99,,,-99.99,,2013-07-13 05:52:00,
2013-07-13 02:02:00,67.0,62.0,-100.00,NE,40,2.0,4.0,83,-99.99,,,-99.99,,2013-07-13 06:02:00,
2013-07-13 03:02:00,66.0,63.0,-100.00,North,5,1.0,2.0,88,-99.99,,,-99.99,,2013-07-13 07:02:00,
2013-07-13 03:33:00,65.0,63.0,-100.00,North,0,1.0,1.0,90,-99.99,,,-99.99,,2013-07-13 07:33:00,
2013-07-13 03:44:00,66.0,63.0,-100.00,North,355,1.0,2.0,90,-99.99,,,-99.99,,2013-07-13 07:44:00,
2013-07-13 03:53:00,65.0,63.0,-100.00,NNW,340,4.0,4.0,91,-99.99,,,-99.99,,2013-07-13 07:53:00,
2013-07-13 04:02:00,66.0,64.0,-100.00,North,350,2.0,4.0,92,-99.99,,,-99.99,,2013-07-13 08:02:00,
2013-07-13 04:12:00,65.0,64.0,-100.00,North,355,1.0,3.0,93,-99.99,,,-99.99,,2013-07-13 08:12:00,
2013-07-13 04:33:00,64.0,63.0,-100.00,NE,35,1.0,2.0,94,-99.99,,,-99.99,,2013-07-13 08:33:00,
2013-07-13 04:43:00,65.0,63.0,-100.00,NNE,30,2.0,3.0,95,-99.99,,,-99.99,,2013-07-13 08:43:00,
2013-07-13 04:52:00,66.0,65.0,-100.00,North,5,2.0,4.0,96,-99.99,,,-99.99,,2013-07-13 08:52:00,
2013-07-13 05:02:00,66.0,65.0,-100.00,NNW,345,1.0,2.0,96,-99.99,,,-99.99,,2013-07-13 09:02:00,
2013-07-13 05:11:00,65.0,64.0,-100.00,NNE,25,1.0,2.0,96,-99.99,,,-99.99,,2013-07-13 09:11:00,
2013-07-13 05:33:00,66.0,65.0,-100.00,NNE,30,1.0,3.0,96,-99.99,,,-99.99,,2013-07-13 09:33:00,
2013-07-13 05:43:00,66.0,65.0,-100.00,North,355,1.0,2.0,97,-99.99,,,-99.99,,2013-07-13 09:43:00,
2013-07-13 06:01:00,65.0,64.0,-100.00,North,0,1.0,2.0,97,-99.99,,,-99.99,,2013-07-13 10:01:00,
2013-07-13 06:22:00,65.0,64.0,-100.00,NE,55,3.0,5.0,97,-99.99,,,-99.99,,2013-07-13 10:22:00,
2013-07-13 06:32:00,67.0,66.0,-100.00,NNE,20,4.0,6.0,98,-99.99,,,-99.99,,2013-07-13 10:32:00,
2013-07-13 07:22:00,66.0,66.0,-100.00,East,85,7.0,7.0,98,-99.99,,,-99.99,,2013-07-13 11:22:00,
2013-07-13 08:02:00,69.0,67.0,-100.00,ENE,65,2.0,4.0,92,-99.99,,,-99.99,,2013-07-13 12:02:00,
2013-07-13 08:43:00,72.0,67.0,-100.00,ENE,70,3.0,5.0,85,-99.99,,,-99.99,,2013-07-13 12:43:00,
2013-07-13 09:01:00,72.0,66.0,-100.00,NE,55,4.0,9.0,83,-99.99,,,-99.99,,2013-07-13 13:01:00,
2013-07-13 09:12:00,72.0,66.0,-100.00,ENE,60,6.0,9.0,82,-99.99,,,-99.99,,2013-07-13 13:12:00,
2013-07-13 09:22:00,72.0,66.0,-100.00,ENE,60,6.0,11.0,81,-99.99,,,-99.99,,2013-07-13 13:22:00,
2013-07-13 09:32:00,72.0,65.0,-100.00,East,85,9.0,11.0,79,-99.99,,,-99.99,,2013-07-13 13:32:00,
2013-07-13 09:43:00,73.0,65.0,-100.00,East,80,10.0,13.0,77,-99.99,,,-99.99,,2013-07-13 13:43:00,
2013-07-13 09:53:00,73.0,65.0,-100.00,East,80,10.0,13.0,77,-99.99,,,-99.99,,2013-07-13 13:53:00,
2013-07-13 10:02:00,73.0,65.0,-100.00,East,80,10.0,13.0,77,-99.99,,,-99.99,,2013-07-13 14:02:00,
2013-07-13 10:11:00,74.0,65.0,-100.00,East,80,7.0,12.0,72,-99.99,,,-99.99,,2013-07-13 14:11:00,
2013-07-13 10:53:00,76.0,65.0,-100.00,East,80,6.0,12.0,67,-99.99,,,-99.99,,2013-07-13 14:53:00,
2013-07-13 11:02:00,77.0,64.0,-100.00,ENE,60,8.0,12.0,65,-99.99,,,-99.99,,2013-07-13 15:02:00,
2013-07-13 11:22:00,78.0,68.0,-100.00,East,100,7.0,12.0,70,-99.99,,,-99.99,,2013-07-13 15:22:00,
2013-07-13 11:33:00,77.0,65.0,-100.00,East,95,9.0,12.0,65,-99.99,,,-99.99,,2013-07-13 15:33:00,
2013-07-13 11:43:00,78.0,65.0,-100.00,ENE,70,7.0,11.0,62,-99.99,,,-99.99,,2013-07-13 15:43:00,
2013-07-13 11:53:00,78.0,64.0,-100.00,ESE,120,6.0,12.0,62,-99.99,,,-99.99,,2013-07-13 15:53:00,
2013-07-13 12:02:00,78.0,64.0,-100.00,ESE,120,6.0,12.0,62,-99.99,,,-99.99,,2013-07-13 16:02:00,
2013-07-13 12:11:00,79.0,64.0,-100.00,ENE,75,6.0,13.0,60,-99.99,,,-99.99,,2013-07-13 16:11:00,
2013-07-13 12:22:00,79.0,64.0,-100.00,East,85,7.0,13.0,61,-99.99,,,-99.99,,2013-07-13 16:22:00,
2013-07-13 12:33:00,79.0,65.0,-100.00,ENE,65,7.0,11.0,61,-99.99,,,-99.99,,2013-07-13 16:33:00,
2013-07-13 12:43:00,79.0,64.0,-100.00,NE,55,7.0,11.0,58,-99.99,,,-99.99,,2013-07-13 16:43:00,
2013-07-13 12:53:00,80.0,64.0,-100.00,NE,40,8.0,14.0,58,-99.99,,,-99.99,,2013-07-13 16:53:00,
2013-07-13 13:01:00,80.0,64.0,-100.00,NE,55,7.0,11.0,57,-99.99,,,-99.99,,2013-07-13 17:01:00,
2013-07-13 13:12:00,80.0,65.0,-100.00,East,85,4.0,11.0,60,-99.99,,,-99.99,,2013-07-13 17:12:00,
2013-07-13 13:22:00,80.0,65.0,-100.00,NE,55,6.0,10.0,59,-99.99,,,-99.99,,2013-07-13 17:22:00,
2013-07-13 13:33:00,81.0,64.0,-100.00,NNE,25,4.0,11.0,57,-99.99,,,-99.99,,2013-07-13 17:33:00,
2013-07-13 13:43:00,81.0,66.0,-100.00,ENE,65,6.0,11.0,60,-99.99,,,-99.99,,2013-07-13 17:43:00,
2013-07-13 13:52:00,81.0,66.0,-100.00,NE,55,7.0,12.0,60,-99.99,,,-99.99,,2013-07-13 17:52:00,
2013-07-13 14:01:00,82.0,67.0,-100.00,NE,45,5.0,12.0,60,-99.99,,,-99.99,,2013-07-13 18:01:00,
2013-07-13 14:11:00,82.0,67.0,-100.00,NE,45,5.0,12.0,60,-99.99,,,-99.99,,2013-07-13 18:11:00,
2013-07-13 14:22:00,81.0,66.0,-100.00,East,95,6.0,12.0,60,-99.99,,,-99.99,,2013-07-13 18:22:00,
2013-07-13 14:32:00,82.0,66.0,-100.00,NNE,30,6.0,11.0,58,-99.99,,,-99.99,,2013-07-13 18:32:00,
2013-07-13 14:44:00,82.0,65.0,-100.00,NE,50,6.0,10.0,58,-99.99,,,-99.99,,2013-07-13 18:44:00,
2013-07-13 14:53:00,82.0,68.0,-100.00,ENE,65,6.0,9.0,63,-99.99,,,-99.99,,2013-07-13 18:53:00,
2013-07-13 15:02:00,81.0,67.0,-100.00,NE,50,6.0,12.0,63,-99.99,,,-99.99,,2013-07-13 19:02:00,
2013-07-13 15:11:00,81.0,68.0,-100.00,ENE,65,9.0,14.0,64,-99.99,,,-99.99,,2013-07-13 19:11:00,
2013-07-13 15:22:00,82.0,67.0,-100.00,NNE,30,7.0,11.0,61,-99.99,,,-99.99,,2013-07-13 19:22:00,
2013-07-13 15:32:00,81.0,68.0,-100.00,NNE,30,7.0,11.0,63,-99.99,,,-99.99,,2013-07-13 19:32:00,
2013-07-13 15:44:00,82.0,67.0,-100.00,NE,35,6.0,10.0,61,-99.99,,,-99.99,,2013-07-13 19:44:00,
2013-07-13 15:52:00,82.0,67.0,-100.00,NE,35,6.0,10.0,61,-99.99,,,-99.99,,2013-07-13 19:52:00,
2013-07-13 16:01:00,81.0,68.0,-100.00,NNE,30,8.0,13.0,65,-99.99,,,-99.99,,2013-07-13 20:01:00,
2013-07-13 16:11:00,81.0,67.0,-100.00,NNE,20,6.0,12.0,62,-99.99,,,-99.99,,2013-07-13 20:11:00,
2013-07-13 16:22:00,81.0,67.0,-100.00,NNE,20,8.0,12.0,62,-99.99,,,-99.99,,2013-07-13 20:22:00,
2013-07-13 16:33:00,81.0,68.0,-100.00,ENE,65,9.0,12.0,64,-99.99,,,-99.99,,2013-07-13 20:33:00,
2013-07-13 16:43:00,81.0,68.0,-100.00,ENE,65,8.0,12.0,64,-99.99,,,-99.99,,2013-07-13 20:43:00,
2013-07-13 16:52:00,81.0,68.0,-100.00,ENE,75,7.0,12.0,63,-99.99,,,-99.99,,2013-07-13 20:52:00,
2013-07-13 17:02:00,81.0,68.0,-100.00,ENE,75,7.0,12.0,63,-99.99,,,-99.99,,2013-07-13 21:02:00,
2013-07-13 17:12:00,82.0,69.0,-100.00,NNE,25,6.0,12.0,63,-99.99,,,-99.99,,2013-07-13 21:12:00,
2013-07-13 17:22:00,82.0,69.0,-100.00,NE,40,7.0,13.0,64,-99.99,,,-99.99,,2013-07-13 21:22:00,
2013-07-13 17:32:00,82.0,69.0,-100.00,NE,35,6.0,12.0,64,-99.99,,,-99.99,,2013-07-13 21:32:00,
2013-07-13 17:43:00,81.0,69.0,-100.00,ENE,60,8.0,12.0,65,-99.99,,,-99.99,,2013-07-13 21:43:00,
2013-07-13 17:53:00,81.0,68.0,-100.00,ENE,75,6.0,12.0,63,-99.99,,,-99.99,,2013-07-13 21:53:00,
2013-07-13 18:01:00,82.0,69.0,-100.00,ENE,75,8.0,12.0,65,-99.99,,,-99.99,,2013-07-13 22:01:00,
2013-07-13 18:12:00,81.0,68.0,-100.00,ENE,70,7.0,12.0,64,-99.99,,,-99.99,,2013-07-13 22:12:00,
2013-07-13 18:22:00,81.0,68.0,-100.00,ENE,65,6.0,10.0,63,-99.99,,,-99.99,,2013-07-13 22:22:00,
2013-07-13 18:32:00,81.0,68.0,-100.00,ENE,65,6.0,10.0,63,-99.99,,,-99.99,,2013-07-13 22:32:00,
2013-07-13 18:43:00,82.0,68.0,-100.00,NNE,30,5.0,11.0,63,-99.99,,,-99.99,,2013-07-13 22:43:00,
2013-07-13 18:53:00,81.0,68.0,-100.00,NNE,20,7.0,13.0,64,-99.99,,,-99.99,,2013-07-13 22:53:00,
2013-07-13 19:02:00,80.0,68.0,-100.00,NE,45,6.0,12.0,66,-99.99,,,-99.99,,2013-07-13 23:02:00,
2013-07-13 19:11:00,81.0,69.0,-100.00,NE,40,7.0,11.0,67,-99.99,,,-99.99,,2013-07-13 23:11:00,
2013-07-13 19:22:00,81.0,69.0,-100.00,NE,40,7.0,11.0,67,-99.99,,,-99.99,,2013-07-13 23:22:00,
2013-07-13 19:32:00,79.0,69.0,-100.00,ENE,65,8.0,12.0,70,-99.99,,,-99.99,,2013-07-13 23:32:00,
2013-07-13 19:42:00,79.0,69.0,-100.00,ENE,65,8.0,12.0,70,-99.99,,,-99.99,,2013-07-13 23:42:00,
2013-07-13 19:53:00,79.0,69.0,-100.00,ENE,70,8.0,12.0,71,-99.99,,,-99.99,,2013-07-13 23:53:00,
2013-07-13 20:01:00,78.0,69.0,-100.00,ENE,75,6.0,13.0,72,-99.99,,,-99.99,,2013-07-14 00:01:00,
2013-07-13 20:12:00,77.0,69.0,-100.00,East,85,8.0,12.0,74,-99.99,,,-99.99,,2013-07-14 00:12:00,
2013-07-13 20:22:00,77.0,69.0,-100.00,ENE,65,6.0,11.0,75,-99.99,,,-99.99,,2013-07-14 00:22:00,
2013-07-13 20:33:00,77.0,68.0,-100.00,ENE,75,9.0,13.0,75,-99.99,,,-99.99,,2013-07-14 00:33:00,
2013-07-13 20:42:00,76.0,68.0,-100.00,ENE,70,6.0,12.0,75,-99.99,,,-99.99,,2013-07-14 00:42:00,
2013-07-13 20:53:00,76.0,67.0,-100.00,NE,45,7.0,12.0,75,-99.99,,,-99.99,,2013-07-14 00:53:00,
2013-07-13 21:02:00,76.0,67.0,-100.00,NE,45,7.0,12.0,75,-99.99,,,-99.99,,2013-07-14 01:02:00,
2013-07-13 21:11:00,76.0,67.0,-100.00,NE,45,7.0,12.0,75,-99.99,,,-99.99,,2013-07-14 01:11:00,
2013-07-13 21:22:00,74.0,68.0,-100.00,ENE,70,6.0,10.0,82,-99.99,,,-99.99,,2013-07-14 01:22:00,
2013-07-13 21:32:00,74.0,69.0,-100.00,East,80,6.0,9.0,83,-99.99,,,-99.99,,2013-07-14 01:32:00,
2013-07-13 21:43:00,73.0,68.0,-100.00,ENE,65,6.0,11.0,85,-99.99,,,-99.99,,2013-07-14 01:43:00,
2013-07-13 21:52:00,73.0,69.0,-100.00,ENE,75,6.0,9.0,86,-99.99,,,-99.99,,2013-07-14 01:52:00,
2013-07-13 22:02:00,72.0,68.0,-100.00,ENE,70,4.0,8.0,87,-99.99,,,-99.99,,2013-07-14 02:02:00,
2013-07-13 22:11:00,72.0,69.0,-100.00,ENE,75,4.0,7.0,88,-99.99,,,-99.99,,2013-07-14 02:11:00,
2013-07-13 22:22:00,72.0,69.0,-100.00,ENE,75,5.0,8.0,88,-99.99,,,-99.99,,2013-07-14 02:22:00,
2013-07-13 22:32:00,72.0,69.0,-100.00,ENE,65,5.0,9.0,89,-99.99,,,-99.99,,2013-07-14 02:32:00,
2013-07-13 22:43:00,72.0,69.0,-100.00,ENE,75,4.0,7.0,89,-99.99,,,-99.99,,2013-07-14 02:43:00,
2013-07-13 22:53:00,71.0,68.0,-100.00,East,80,3.0,7.0,90,-99.99,,,-99.99,,2013-07-14 02:53:00,
2013-07-13 23:01:00,71.0,68.0,-100.00,East,80,4.0,6.0,91,-99.99,,,-99.99,,2013-07-14 03:01:00,
2013-07-13 23:11:00,71.0,68.0,-100.00,East,85,4.0,6.0,91,-99.99,,,-99.99,,2013-07-14 03:11:00,
2013-07-13 23:22:00,71.0,68.0,-100.00,East,90,2.0,4.0,91,-99.99,,,-99.99,,2013-07-14 03:22:00,
2013-07-13 23:32:00,71.0,68.0,-100.00,East,80,3.0,4.0,91,-99.99,,,-99.99,,2013-07-14 03:32:00,
2013-07-13 23:43:00,71.0,68.0,-100.00,East,80,3.0,4.0,91,-99.99,,,-99.99,,2013-07-14 03:43:00,
2013-07-13 23:53:00,70.0,68.0,-100.00,East,100,4.0,7.0,91,-99.99,,,-99.99,,2013-07-14 03:53:00,